Latest Weather Observations for Frankston

IDV60901

Issued at 4:11 pm EST Sunday 1 May 2016 (issued every 10 minutes, with the page automatically refreshed every 10 minutes)

About weather observations | Map of Melbourne area stations | Latest observations for Melbourne area | Other Formats
Station Details ID: 086371 Name: FRANKSTON AWS Lat: -38.15 Lon: 145.12 Height: 6.0 m
Data from the previous 72 hours. | See also: Recent months at Frankston
Date/Time
EST
Tmp

°C
App
Tmp
°C
Dew
Point
°C
Rel
Hum
%
Delta-T

°C
Wind Press
QNH
hPa
Press
MSL
hPa
Rain
since
9 am
mm
Dir
 
Spd
km/h
Gust
km/h
Spd
kts
Gust
kts
01/04:00pm 13.8 4.9 7.8 67 3.0 W 44 56 24 30 - - -
01/03:30pm 14.3 5.3 7.1 62 3.5 W 44 57 24 31 - - -
01/03:00pm 14.6 6.0 8.3 66 3.2 WNW 43 56 23 30 - - -
01/02:30pm 14.3 6.5 8.3 67 3.0 WNW 39 54 21 29 - - -
01/02:00pm 14.7 7.0 8.6 67 3.1 WNW 39 48 21 26 - - -
01/01:30pm 13.6 7.1 9.1 74 2.3 WNW 33 43 18 23 - - -
01/01:00pm 12.8 4.4 8.9 77 2.0 WNW 43 56 23 30 - - -
01/12:30pm 14.0 6.4 9.0 72 2.5 WNW 39 46 21 25 - - -
01/12:00pm 13.7 4.0 9.2 74 2.3 W 50 61 27 33 - - -
01/11:33am 12.9 3.1 8.6 75 2.1 WNW 50 76 27 41 - - -
01/11:30am 15.0 5.4 9.4 69 2.9 WNW 50 63 27 34 - - -
01/11:00am 15.1 6.2 9.2 68 3.0 WNW 46 61 25 33 - - -
01/10:30am 15.1 6.1 8.8 66 3.2 NW 46 57 25 31 - - -
01/10:00am 15.1 6.8 9.5 69 2.9 NW 43 57 23 31 - - -
01/09:30am 14.7 6.3 9.1 69 2.9 NW 43 56 23 30 - - -
01/09:00am 15.0 7.0 8.9 67 3.1 NW 41 54 22 29 - - -
01/08:30am 14.1 4.1 9.5 74 2.4 NW 52 74 28 40 - - -
01/08:18am 16.1 6.3 8.8 62 3.7 NW 50 69 27 37 - - -
01/08:00am 16.7 7.9 9.6 63 3.7 NW 46 61 25 33 - - -
01/07:46am 16.7 9.3 9.9 64 3.6 NNW 39 54 21 29 - - -
01/07:30am 16.1 10.5 12.1 77 2.2 N 33 43 18 23 - - -
01/07:00am 16.1 9.8 12.3 78 2.1 N 37 46 20 25 - - -
01/06:30am 16.2 10.7 12.6 79 2.0 N 33 41 18 22 - - -
01/06:00am 15.9 11.4 12.6 81 1.8 N 28 35 15 19 - - -
01/05:30am 15.7 11.3 12.8 83 1.6 N 28 37 15 20 - - -
01/05:00am 15.5 11.9 13.0 85 1.4 NNE 24 33 13 18 - - -
01/04:30am 16.9 12.2 14.4 85 1.4 NNW 32 39 17 21 - - -
01/04:15am 16.1 11.3 13.9 87 1.2 NNW 32 44 17 24 - - -
01/04:00am 16.6 11.3 15.3 92 0.8 NW 37 48 20 26 - - -
01/03:30am 14.9 8.3 13.8 93 0.6 W 41 65 22 35 - - -
01/03:26am 15.9 11.1 14.1 89 1.0 W 32 52 17 28 - - -
01/03:00am 19.7 17.7 14.9 74 2.8 NNE 19 30 10 16 - - -
01/02:30am 20.6 16.3 14.5 68 3.6 NNE 30 43 16 23 - - -
01/02:00am 20.2 16.1 15.0 72 3.1 NNE 30 41 16 22 - - -
01/01:30am 20.1 16.0 14.9 72 3.0 NNE 30 43 16 23 - - -
01/01:00am 20.0 17.8 14.8 72 3.0 NNE 20 33 11 18 - - -
01/12:30am 19.5 18.4 14.3 72 3.0 NE 13 26 7 14 - - -
01/12:00am 19.9 18.8 14.3 70 3.2 NE 13 19 7 10 - - -
 
Date/Time
EST
Tmp

°C
App
Tmp
°C
Dew
Point
°C
Rel
Hum
%
Delta-T

°C
Wind Press
QNH
hPa
Press
MSL
hPa
Rain
since
9 am
mm
Dir
 
Spd
km/h
Gust
km/h
Spd
kts
Gust
kts
30/11:30pm 20.4 18.2 14.5 69 3.4 NNE 19 28 10 15 - - -
30/11:00pm 20.3 19.3 14.7 70 3.3 NNE 13 22 7 12 - - -
30/10:30pm 20.3 19.4 14.9 71 3.2 NE 13 28 7 15 - - -
30/10:00pm 19.8 18.9 14.8 73 2.9 NE 13 20 7 11 - - -
30/09:30pm 19.6 19.4 14.6 73 2.9 ENE 9 15 5 8 - - -
30/09:00pm 20.0 19.1 14.8 72 3.0 NE 13 20 7 11 - - -
30/08:30pm 19.9 19.3 14.7 72 3.0 NE 11 19 6 10 - - -
30/08:00pm 20.2 19.2 14.6 70 3.3 NE 13 19 7 10 - - -
30/07:30pm 20.2 19.2 14.6 70 3.3 NNE 13 17 7 9 - - -
30/07:00pm 20.3 20.3 15.1 72 3.1 NNE 9 13 5 7 - - -
30/06:30pm 19.9 17.9 14.9 73 2.9 N 19 24 10 13 - - -
30/06:00pm 21.0 18.3 14.6 67 3.7 N 22 28 12 15 - - -
30/05:30pm 20.9 18.2 14.5 67 3.7 N 22 28 12 15 - - -
30/05:00pm 20.5 18.3 14.8 70 3.3 N 20 24 11 13 - - -
30/04:30pm 21.0 17.9 14.6 67 3.7 N 24 30 13 16 - - -
30/04:00pm 21.2 18.1 14.6 66 3.9 N 24 30 13 16 - - -
30/03:30pm 21.2 17.7 14.4 65 4.0 N 26 32 14 17 - - -
30/03:00pm 21.3 17.3 14.2 64 4.1 N 28 39 15 21 - - -
30/02:30pm 20.9 17.3 14.3 66 3.8 N 26 33 14 18 - - -
30/02:00pm 20.6 18.0 14.9 70 3.3 N 22 28 12 15 - - -
30/01:30pm 20.8 17.4 14.7 68 3.6 N 26 33 14 18 - - -
30/01:00pm 20.3 17.0 14.9 71 3.2 N 26 32 14 17 - - -
30/12:30pm 20.4 15.7 14.3 68 3.5 N 32 41 17 22 - - -
30/12:00pm 20.6 15.3 14.3 67 3.7 N 35 46 19 25 - - -
30/11:30am 20.1 14.8 14.2 69 3.4 N 35 43 19 23 - - -
30/11:00am 19.8 15.5 14.4 71 3.1 N 30 37 16 20 - - -
30/10:30am 19.5 15.7 14.7 74 2.8 N 28 37 15 20 - - -
30/10:00am 19.1 16.2 15.2 78 2.3 N 24 30 13 16 - - -
30/09:30am 18.8 16.0 15.3 80 2.1 N 24 30 13 16 - - -
30/09:00am 18.3 16.8 15.2 82 1.8 NNE 17 22 9 12 - - -
30/08:30am 17.8 16.2 15.1 84 1.6 NNE 17 19 9 10 - - -
30/08:00am 17.4 17.3 15.0 86 1.4 NE 9 15 5 8 - - -
30/07:30am 17.1 16.2 14.9 87 1.3 NNE 13 17 7 9 - - -
30/07:00am 16.9 16.4 14.9 88 1.2 NNE 11 15 6 8 - - -
30/06:30am 17.4 15.6 15.4 88 1.2 NNE 19 22 10 12 - - -
30/06:00am 17.0 16.2 15.0 88 1.2 NNE 13 17 7 9 - - -
30/05:30am 16.4 16.1 14.4 88 1.1 NE 9 13 5 7 - - -
30/05:00am 16.6 16.9 14.6 88 1.1 NE 6 7 3 4 - - -
30/04:30am 16.8 16.6 14.8 88 1.2 NNE 9 13 5 7 - - -
30/04:00am 16.8 16.6 14.8 88 1.2 NNE 9 15 5 8 - - -
30/03:30am 16.8 16.6 14.8 88 1.2 NE 9 11 5 6 - - -
30/03:00am 16.6 16.9 14.6 88 1.1 NE 6 9 3 5 - - -
30/02:30am 16.9 17.2 14.9 88 1.2 NE 7 9 4 5 - - -
30/02:00am 16.8 17.2 14.8 88 1.2 ENE 6 7 3 4 - - -
30/01:30am 17.6 18.0 15.4 87 1.3 N 7 11 4 6 - - -
30/01:00am 17.9 18.0 15.5 86 1.4 N 9 13 5 7 - - -
30/12:30am 17.9 18.0 15.5 86 1.4 N 9 13 5 7 - - -
30/12:00am 17.9 17.5 15.3 85 1.5 N 11 15 6 8 - - -
 
Date/Time
EST
Tmp

°C
App
Tmp
°C
Dew
Point
°C
Rel
Hum
%
Delta-T

°C
Wind Press
QNH
hPa
Press
MSL
hPa
Rain
since
9 am
mm
Dir
 
Spd
km/h
Gust
km/h
Spd
kts
Gust
kts
29/11:30pm 18.0 17.4 15.6 86 1.4 N 13 17 7 9 - - -
29/11:00pm 17.6 17.9 15.0 85 1.5 N 7 9 4 5 - - -
29/10:30pm 17.7 17.3 15.1 85 1.5 N 11 17 6 9 - - -
29/10:00pm 17.8 16.6 15.1 84 1.6 N 15 19 8 10 - - -
29/09:30pm 18.1 15.5 15.0 82 1.8 N 22 30 12 16 - - -
29/09:00pm 18.0 15.1 15.1 83 1.7 N 24 30 13 16 - - -
29/08:30pm 18.1 14.9 15.2 83 1.7 N 26 33 14 18 - - -
29/08:00pm 17.8 15.5 14.7 82 1.8 N 20 28 11 15 - - -
29/07:30pm 18.1 15.1 14.8 81 1.9 N 24 30 13 16 - - -
29/07:00pm 18.0 15.4 14.9 82 1.8 N 22 28 12 15 - - -
29/06:30pm 18.0 16.5 15.4 85 1.5 N 17 24 9 13 - - -
29/06:00pm 17.7 17.2 15.9 89 1.1 N 13 19 7 10 - - -
29/05:30pm 17.3 17.4 15.5 89 1.1 NNE 9 11 5 6 - - -
29/05:00pm 17.4 16.8 15.6 89 1.1 N 13 15 7 8 - - -
29/04:30pm 17.3 17.4 15.6 90 1.0 NNE 9 13 5 7 - - -
29/04:00pm 16.7 17.0 15.1 90 0.9 NNE 7 11 4 6 - - -
29/03:30pm 16.6 15.8 15.0 90 0.9 NNE 13 20 7 11 - - -
29/03:00pm 17.0 15.1 15.2 89 1.0 N 19 24 10 13 - - -
29/02:30pm 16.8 15.3 15.2 90 0.9 NNE 17 22 9 12 - - -
29/02:00pm 16.9 15.7 15.1 89 1.0 N 15 19 8 10 - - -
29/01:30pm 16.9 15.3 14.9 88 1.2 N 17 20 9 11 - - -
29/01:00pm 17.2 15.9 14.8 86 1.4 N 15 19 8 10 - - -
29/12:30pm 17.6 16.6 14.7 83 1.7 N 13 17 7 9 - - -
29/12:00pm 17.9 14.8 14.6 81 1.9 N 24 30 13 16 - - -
29/11:30am 18.9 16.1 14.2 74 2.7 N 22 26 12 14 - - -
29/11:00am 18.7 17.7 14.6 77 2.4 N 13 17 7 9 - - -
29/10:30am 18.3 17.2 14.2 77 2.4 N 13 17 7 9 - - -
29/10:00am 17.8 17.3 13.7 77 2.3 NNE 9 13 5 7 - - -
29/09:30am 18.4 17.0 13.5 73 2.8 N 13 17 7 9 - - -
29/09:00am 19.4 18.1 13.6 69 3.3 NNW 13 17 7 9 - - -
29/08:30am 19.6 15.6 13.1 66 3.7 WNW 26 41 14 22 - - -
29/08:00am 21.8 19.5 10.6 49 6.1 NE 13 24 7 13 - - -
29/07:30am 20.6 18.9 9.8 50 5.8 ENE 9 15 5 8 - - -
29/07:00am 20.1 18.4 9.7 51 5.6 ENE 9 17 5 9 - - -
29/06:30am 19.9 18.6 9.8 52 5.4 ENE 7 11 4 6 - - -
29/06:00am 19.9 18.8 10.0 53 5.3 E 6 9 3 5 - - -
29/05:30am 20.1 19.1 10.2 53 5.3 ENE 6 7 3 4 - - -
29/05:00am 20.3 19.3 10.4 53 5.4 ENE 6 9 3 5 - - -
29/04:30am 20.1 19.2 10.5 54 5.2 E 6 9 3 5 - - -
29/04:00am 20.0 19.5 10.7 55 5.1 ENE 4 7 2 4 - - -
29/03:30am 20.1 19.2 10.5 54 5.2 ENE 6 9 3 5 - - -
29/03:00am 19.8 18.7 10.8 56 4.9 E 7 11 4 6 - - -
29/02:30am 19.5 18.5 11.0 58 4.6 ENE 7 13 4 7 - - -
29/02:00am 19.3 18.3 11.1 59 4.5 E 7 11 4 6 - - -
29/01:30am 19.2 18.6 11.7 62 4.1 E 6 9 3 5 - - -
29/01:00am 19.4 18.1 11.4 60 4.4 E 9 15 5 8 - - -
29/12:30am 19.9 18.4 11.9 60 4.4 ESE 11 15 6 8 - - -
29/12:00am 19.1 18.6 12.6 66 3.6 ESE 7 11 4 6 - - -
 
Date/Time
EST
Tmp

°C
App
Tmp
°C
Dew
Point
°C
Rel
Hum
%
Delta-T

°C
Wind Press
QNH
hPa
Press
MSL
hPa
Rain
since
9 am
mm
Dir
 
Spd
km/h
Gust
km/h
Spd
kts
Gust
kts
28/11:30pm 18.6 18.8 13.2 71 3.1 ENE 4 6 2 3 - - -
28/11:00pm 18.5 18.5 12.5 68 3.3 ENE 4 6 2 3 - - -
28/10:30pm 18.4 18.5 12.6 69 3.2 NE 4 6 2 3 - - -
28/10:00pm 18.8 19.6 12.5 67 3.5 CALM 0 0 0 0 - - -
28/09:30pm 19.0 18.1 12.5 66 3.6 SE 9 13 5 7 - - -
28/09:00pm 19.1 17.8 12.6 66 3.6 SSE 11 17 6 9 - - -
28/08:30pm 19.2 18.8 12.9 67 3.5 SE 7 13 4 7 - - -
28/08:00pm 19.4 18.9 12.2 63 4.0 SE 6 9 3 5 - - -
28/07:30pm 20.1 19.9 11.8 59 4.6 SSW 4 7 2 4 - - -
28/07:00pm 20.6 20.0 11.8 57 4.9 SSW 6 7 3 4 - - -
28/06:30pm 20.4 20.1 12.6 61 4.4 ESE 6 9 3 5 - - -
28/06:00pm 20.9 20.3 12.3 58 4.8 SW 7 20 4 11 - - -
28/05:30pm 21.4 21.1 12.8 58 4.9 E 6 9 3 5 - - -
28/05:00pm 21.0 22.0 13.2 61 4.5 CALM 0 0 0 0 - - -
28/04:30pm 21.2 21.3 12.6 58 4.9 SSE 4 6 2 3 - - -

Latest Capital City Observations: Canberra | Sydney | Melbourne | Brisbane | Adelaide | Perth | Hobart | Darwin

Other Formats:

Comma delimited format used in spreadsheet applications
http://www.bom.gov.au/fwo/IDV60901/IDV60901.94871.axf

JavaScript Object Notation format (JSON) in row-major order
http://www.bom.gov.au/fwo/IDV60901/IDV60901.94871.json